Time;durP1;ratioP1;P1;durP2;ratioP2;P2;SDS_P1;SDS_P2;PMS_P1;PMS_P2;Temp;Humidity;BMP_temperature;BMP_pressure;BME280_temperature;BME280_humidity;BME280_pressure;Samples;Min_cycle;Max_cycle;Signal;HPM_P1;HPM_P2
2022/07/24 00:02:13;;;;;;;9.45;0.65;;;23.90;55.30;;;;;;5052920;28;20032;-70
2022/07/24 00:04:39;;;;;;;3.75;0.77;;;23.90;55.30;;;;;;5052784;28;20025;-71
2022/07/24 00:07:05;;;;;;;6.88;1.02;;;23.90;55.40;;;;;;5051252;28;20078;-70
2022/07/24 00:09:30;;;;;;;6.90;0.70;;;23.90;55.60;;;;;;5051226;28;20034;-70
2022/07/24 00:11:56;;;;;;;2.53;0.70;;;23.90;55.80;;;;;;5052185;28;20044;-71
2022/07/24 00:14:22;;;;;;;2.08;0.60;;;23.90;56.00;;;;;;5051246;28;20109;-71
2022/07/24 00:16:47;;;;;;;3.08;0.82;;;23.90;56.10;;;;;;5052398;28;20029;-70
2022/07/24 00:19:13;;;;;;;4.55;0.60;;;23.90;56.10;;;;;;5052047;28;20074;-71
2022/07/24 00:21:39;;;;;;;4.47;0.57;;;23.90;56.20;;;;;;5051067;28;20024;-70
2022/07/24 00:24:05;;;;;;;2.40;0.60;;;24.00;56.30;;;;;;5052130;28;20025;-71
2022/07/24 00:26:30;;;;;;;1.20;0.70;;;24.00;56.40;;;;;;5051218;28;20067;-70
2022/07/24 00:28:56;;;;;;;2.25;0.70;;;23.90;56.40;;;;;;5051933;28;20029;-70
2022/07/24 00:31:22;;;;;;;0.63;0.43;;;24.00;56.50;;;;;;5050849;28;20025;-70
2022/07/24 00:33:48;;;;;;;2.08;0.60;;;24.00;56.60;;;;;;5052042;28;20029;-70
2022/07/24 00:36:14;;;;;;;2.88;0.65;;;23.90;56.70;;;;;;5052293;28;20072;-70
2022/07/24 00:38:40;;;;;;;1.50;0.50;;;24.00;56.70;;;;;;5050817;28;20116;-70
2022/07/24 00:41:05;;;;;;;5.25;0.70;;;24.00;56.80;;;;;;5053910;28;20105;-71
2022/07/24 00:43:31;;;;;;;0.50;0.45;;;24.00;56.80;;;;;;5054733;28;20021;-71
2022/07/24 00:45:57;;;;;;;1.10;0.50;;;24.00;56.90;;;;;;5055860;28;20052;-71
2022/07/24 00:48:22;;;;;;;0.93;0.63;;;24.00;57.00;;;;;;5038399;28;20079;-71
2022/07/24 00:50:48;;;;;;;2.05;0.40;;;24.00;57.10;;;;;;5054872;28;20567;-70
2022/07/24 00:53:14;;;;;;;1.35;0.70;;;24.00;57.00;;;;;;5054802;28;20029;-70
2022/07/24 00:55:39;;;;;;;2.40;0.50;;;24.00;57.10;;;;;;5054838;28;20021;-71
2022/07/24 00:58:05;;;;;;;1.55;0.60;;;24.00;57.20;;;;;;5054235;28;20025;-71
2022/07/24 01:00:31;;;;;;;1.60;0.50;;;24.00;57.20;;;;;;5055894;28;20372;-71
2022/07/24 01:02:56;;;;;;;0.90;0.52;;;23.90;57.20;;;;;;5054568;28;20410;-71
2022/07/24 01:05:22;;;;;;;0.65;0.40;;;24.00;57.20;;;;;;5037981;28;20067;-71
2022/07/24 01:07:48;;;;;;;1.60;0.38;;;24.00;57.30;;;;;;5054733;28;20033;-70
2022/07/24 01:10:13;;;;;;;0.52;0.43;;;24.00;57.40;;;;;;5055452;28;20399;-71
2022/07/24 01:12:39;;;;;;;0.55;0.50;;;24.00;57.40;;;;;;5052949;28;20495;-71
2022/07/24 01:15:06;;;;;;;5.15;0.60;;;24.00;57.30;;;;;;5036025;28;20112;-70
2022/07/24 01:17:33;;;;;;;0.75;0.50;;;24.00;57.50;;;;;;5054205;28;20041;-71
2022/07/24 01:19:59;;;;;;;2.38;0.47;;;24.00;57.70;;;;;;5054169;28;20103;-71
2022/07/24 01:22:25;;;;;;;0.52;0.30;;;24.00;57.60;;;;;;5036951;28;20441;-70
2022/07/24 01:24:51;;;;;;;1.60;0.50;;;24.00;57.60;;;;;;5054475;28;20495;-71
2022/07/24 01:27:17;;;;;;;1.13;0.60;;;24.00;57.60;;;;;;5054434;28;20032;-70
2022/07/24 01:29:42;;;;;;;0.80;0.50;;;24.00;57.60;;;;;;5037338;28;20029;-70
2022/07/24 01:32:08;;;;;;;4.25;0.75;;;24.00;57.60;;;;;;5055005;28;20029;-70
2022/07/24 01:34:33;;;;;;;1.85;0.75;;;24.00;57.60;;;;;;5054162;28;20036;-70
2022/07/24 01:36:59;;;;;;;1.13;0.60;;;24.00;57.60;;;;;;5055097;28;20029;-70
2022/07/24 01:39:25;;;;;;;1.40;0.60;;;24.00;58.60;;;;;;5055096;28;20024;-70
2022/07/24 01:41:50;;;;;;;3.10;1.02;;;24.00;57.60;;;;;;5055044;28;20494;-70
2022/07/24 01:44:16;;;;;;;2.67;0.73;;;24.00;57.70;;;;;;5053766;28;20017;-71
2022/07/24 01:46:42;;;;;;;2.53;0.80;;;24.00;57.70;;;;;;5054912;28;20025;-71
2022/07/24 01:49:08;;;;;;;1.33;0.52;;;24.00;57.80;;;;;;5055146;28;20017;-70
2022/07/24 01:51:33;;;;;;;1.88;0.60;;;24.00;57.80;;;;;;5037318;28;20056;-70
2022/07/24 01:53:59;;;;;;;1.17;0.40;;;24.00;57.90;;;;;;5054105;28;20063;-71
2022/07/24 01:56:25;;;;;;;1.65;0.70;;;24.10;57.90;;;;;;5054707;28;20064;-71
2022/07/24 01:58:50;;;;;;;1.63;0.47;;;24.10;57.90;;;;;;5054674;28;20025;-71
2022/07/24 02:01:16;;;;;;;1.38;0.47;;;24.00;57.90;;;;;;5054632;28;20057;-70
2022/07/24 02:03:41;;;;;;;1.27;0.52;;;24.10;57.90;;;;;;5053709;28;20013;-70
2022/07/24 02:06:08;;;;;;;3.03;0.50;;;24.00;57.90;;;;;;5054838;28;20029;-71
2022/07/24 02:08:33;;;;;;;1.48;0.50;;;24.00;57.90;;;;;;5054649;28;20014;-70
2022/07/24 02:10:59;;;;;;;1.85;0.68;;;24.10;57.90;;;;;;5054375;28;20116;-70
2022/07/24 02:13:25;;;;;;;3.05;0.50;;;24.00;57.90;;;;;;5054337;28;20120;-70
2022/07/24 02:15:52;;;;;;;1.63;0.70;;;24.00;57.90;;;;;;5054410;28;20495;-70
2022/07/24 02:18:18;;;;;;;3.55;0.75;;;24.00;57.90;;;;;;5054235;28;20021;-70
2022/07/24 02:20:43;;;;;;;1.58;0.50;;;24.00;57.90;;;;;;5053160;28;20376;-70
2022/07/24 02:23:09;;;;;;;1.00;0.50;;;24.10;57.90;;;;;;5054210;28;20021;-70
2022/07/24 02:25:35;;;;;;;2.17;0.70;;;24.10;58.00;;;;;;5054142;28;20082;-70
2022/07/24 02:28:00;;;;;;;0.80;0.60;;;24.10;57.90;;;;;;5053063;28;20036;-70
2022/07/24 02:30:26;;;;;;;1.83;0.50;;;24.00;57.90;;;;;;5053052;28;20044;-71
2022/07/24 02:32:52;;;;;;;0.63;0.45;;;24.00;57.90;;;;;;5052891;28;20025;-70
2022/07/24 02:35:17;;;;;;;5.88;0.70;;;24.00;58.00;;;;;;5052740;28;20402;-71
2022/07/24 02:37:44;;;;;;;2.35;0.60;;;24.10;58.10;;;;;;5054217;28;20024;-71
2022/07/24 02:40:10;;;;;;;3.78;0.60;;;24.00;58.00;;;;;;5052444;28;20025;-71
2022/07/24 02:42:36;;;;;;;2.67;0.57;;;24.00;58.00;;;;;;5054076;28;20159;-71
2022/07/24 02:45:03;;;;;;;0.57;0.43;;;24.10;58.00;;;;;;5053878;28;20475;-71
2022/07/24 02:47:28;;;;;;;0.47;0.40;;;24.10;58.10;;;;;;5053764;28;20017;-71
2022/07/24 02:49:54;;;;;;;1.90;0.52;;;24.10;58.10;;;;;;5053661;28;20029;-70
2022/07/24 02:52:19;;;;;;;3.95;0.70;;;24.10;58.00;;;;;;5053624;28;20021;-70
2022/07/24 02:54:45;;;;;;;1.85;0.50;;;24.10;57.90;;;;;;5054100;28;20029;-70
2022/07/24 02:57:11;;;;;;;1.90;0.60;;;24.10;58.00;;;;;;5052775;28;20025;-70
2022/07/24 02:59:36;;;;;;;2.28;0.50;;;24.10;58.00;;;;;;5052979;28;20363;-70
2022/07/24 03:02:02;;;;;;;0.80;0.70;;;24.10;58.00;;;;;;5054187;28;20104;-71
2022/07/24 03:04:28;;;;;;;2.10;0.60;;;24.10;58.00;;;;;;5053052;28;20033;-70
2022/07/24 03:06:53;;;;;;;2.35;0.60;;;24.10;58.00;;;;;;5054154;28;20040;-70
2022/07/24 03:09:19;;;;;;;1.60;0.52;;;24.10;58.00;;;;;;5053569;28;20040;-71
2022/07/24 03:11:44;;;;;;;1.77;0.45;;;24.10;58.10;;;;;;5053763;28;20041;-70
2022/07/24 03:14:10;;;;;;;2.53;0.40;;;24.10;58.10;;;;;;5053999;28;20403;-71
2022/07/24 03:16:37;;;;;;;2.50;0.40;;;24.10;58.10;;;;;;5053695;28;20099;-70
2022/07/24 03:19:02;;;;;;;2.45;0.50;;;24.10;58.10;;;;;;5053859;28;20482;-71
2022/07/24 03:21:28;;;;;;;0.60;0.40;;;24.10;58.10;;;;;;5053502;28;20032;-70
2022/07/24 03:23:54;;;;;;;1.60;0.55;;;24.10;58.10;;;;;;5053612;28;20031;-70
2022/07/24 03:26:19;;;;;;;1.90;0.50;;;24.10;58.10;;;;;;5053010;28;20028;-70
2022/07/24 03:28:45;;;;;;;0.40;0.40;;;24.10;58.10;;;;;;5051837;28;20436;-71
2022/07/24 03:31:10;;;;;;;0.82;0.68;;;24.10;58.10;;;;;;5053007;28;20061;-70
2022/07/24 03:33:36;;;;;;;2.58;0.60;;;24.10;58.10;;;;;;5052826;28;20072;-71
2022/07/24 03:36:02;;;;;;;1.48;0.50;;;24.10;58.10;;;;;;5052983;28;20027;-71
2022/07/24 03:38:27;;;;;;;23.52;1.02;;;24.10;58.10;;;;;;5052640;28;20029;-70
2022/07/24 03:40:53;;;;;;;4.72;0.52;;;24.10;58.10;;;;;;5052964;28;20025;-71
2022/07/24 03:43:18;;;;;;;2.08;0.63;;;24.10;58.10;;;;;;5052767;28;20021;-71
2022/07/24 03:45:44;;;;;;;2.25;0.47;;;24.10;58.10;;;;;;5051749;28;20411;-71
2022/07/24 03:48:10;;;;;;;1.30;0.40;;;24.10;58.10;;;;;;5034781;28;20079;-71
2022/07/24 03:50:36;;;;;;;0.88;0.43;;;24.10;58.10;;;;;;5051414;28;20027;-71
2022/07/24 03:53:01;;;;;;;2.17;0.55;;;24.10;58.20;;;;;;5051474;28;20031;-70
2022/07/24 03:55:27;;;;;;;1.65;0.43;;;24.10;58.30;;;;;;5035019;28;20116;-71
2022/07/24 03:57:53;;;;;;;2.10;0.50;;;24.10;58.30;;;;;;5052417;28;20032;-71
2022/07/24 04:00:18;;;;;;;2.35;0.60;;;24.10;58.30;;;;;;5051420;28;20029;-70
2022/07/24 04:02:44;;;;;;;0.50;0.50;;;24.10;58.30;;;;;;5051199;28;20391;-70
2022/07/24 04:05:10;;;;;;;1.48;0.70;;;24.10;58.00;;;;;;5052407;28;20025;-69
2022/07/24 04:07:36;;;;;;;1.17;0.70;;;24.10;55.40;;;;;;5051215;28;20025;-69
2022/07/24 04:10:03;;;;;;;0.65;0.50;;;24.00;55.80;;;;;;5051144;28;20499;-69
2022/07/24 04:12:28;;;;;;;3.42;0.60;;;24.00;56.50;;;;;;5051171;28;20045;-70
2022/07/24 04:14:54;;;;;;;2.50;0.50;;;24.00;57.10;;;;;;5052276;28;20017;-70
2022/07/24 04:17:19;;;;;;;2.85;0.60;;;24.00;57.10;;;;;;5052233;28;20028;-70
2022/07/24 04:19:45;;;;;;;0.93;0.50;;;24.00;57.20;;;;;;5052417;28;20407;-70
2022/07/24 04:22:11;;;;;;;0.90;0.60;;;24.00;57.30;;;;;;5050791;28;20025;-70
2022/07/24 04:24:36;;;;;;;1.55;0.40;;;24.00;57.50;;;;;;5052307;28;20025;-69
2022/07/24 04:27:02;;;;;;;0.73;0.57;;;24.00;57.60;;;;;;5052321;28;20096;-70
2022/07/24 04:29:27;;;;;;;3.40;0.50;;;24.00;57.60;;;;;;5050983;28;20758;-70
2022/07/24 04:31:53;;;;;;;1.15;0.60;;;24.00;57.60;;;;;;5052596;28;20561;-70
2022/07/24 04:34:19;;;;;;;2.05;0.60;;;24.00;57.60;;;;;;5052593;28;20124;-70
2022/07/24 04:36:44;;;;;;;2.50;0.50;;;24.00;57.60;;;;;;5052472;28;20029;-70
2022/07/24 04:39:10;;;;;;;0.80;0.60;;;24.00;57.60;;;;;;5052723;28;20032;-69
2022/07/24 04:41:36;;;;;;;1.35;0.40;;;24.00;57.60;;;;;;5052535;28;20025;-69
2022/07/24 04:44:01;;;;;;;2.42;0.50;;;24.10;57.60;;;;;;5052527;28;20344;-70
2022/07/24 04:46:27;;;;;;;0.63;0.50;;;24.00;57.70;;;;;;5051213;28;20029;-70
2022/07/24 04:48:53;;;;;;;2.38;0.45;;;24.10;57.80;;;;;;5052411;28;20021;-70
2022/07/24 04:51:18;;;;;;;0.60;0.35;;;24.00;57.80;;;;;;5052540;28;20032;-69
2022/07/24 04:53:44;;;;;;;2.92;0.65;;;24.00;58.00;;;;;;5052699;28;20483;-70
2022/07/24 04:56:10;;;;;;;2.35;0.63;;;24.00;57.90;;;;;;5052388;28;20036;-69
2022/07/24 04:58:35;;;;;;;4.68;0.40;;;24.00;58.00;;;;;;5051115;28;20029;-70
2022/07/24 05:01:01;;;;;;;0.35;0.32;;;24.00;58.00;;;;;;5051409;28;20095;-69
2022/07/24 05:03:26;;;;;;;0.43;0.43;;;24.00;58.00;;;;;;5052382;28;20032;-69
2022/07/24 05:05:52;;;;;;;1.10;0.55;;;24.00;58.10;;;;;;5052566;28;20029;-69
2022/07/24 05:08:18;;;;;;;0.47;0.47;;;24.10;58.30;;;;;;5050348;28;20076;-70
2022/07/24 05:10:43;;;;;;;1.17;0.35;;;24.00;58.30;;;;;;5051554;28;20036;-70
2022/07/24 05:13:09;;;;;;;0.57;0.40;;;24.10;58.30;;;;;;5049512;28;20040;-69
2022/07/24 05:15:35;;;;;;;0.90;0.60;;;24.00;58.30;;;;;;5051502;28;20063;-69
2022/07/24 05:18:00;;;;;;;1.02;0.52;;;24.10;58.40;;;;;;5050412;28;20108;-69
2022/07/24 05:20:26;;;;;;;3.40;0.47;;;24.00;58.40;;;;;;5051713;28;20052;-70
2022/07/24 05:22:52;;;;;;;0.50;0.45;;;24.10;58.50;;;;;;5050617;28;20052;-69
2022/07/24 05:25:17;;;;;;;6.20;0.52;;;24.10;58.50;;;;;;5050436;28;20029;-70
2022/07/24 05:27:43;;;;;;;1.60;0.45;;;24.10;58.60;;;;;;5052540;28;20468;-70
2022/07/24 05:30:09;;;;;;;0.60;0.50;;;24.10;58.70;;;;;;5054665;28;20029;-70
2022/07/24 05:32:35;;;;;;;1.17;0.60;;;24.10;58.70;;;;;;5054702;28;20108;-70
2022/07/24 05:35:00;;;;;;;1.35;0.40;;;24.10;58.70;;;;;;5055316;28;20459;-70
2022/07/24 05:37:26;;;;;;;3.38;0.47;;;24.10;58.70;;;;;;5054270;28;20060;-70
2022/07/24 05:39:52;;;;;;;0.75;0.60;;;24.00;58.70;;;;;;5054570;28;20025;-70
2022/07/24 05:42:17;;;;;;;1.65;0.80;;;24.00;56.90;;;;;;5053973;28;20025;-69
2022/07/24 05:44:43;;;;;;;0.80;0.70;;;24.00;56.10;;;;;;5055065;28;20025;-69
2022/07/24 05:47:08;;;;;;;2.53;0.57;;;24.00;56.30;;;;;;5053482;28;20399;-69
2022/07/24 05:49:34;;;;;;;0.85;0.60;;;23.90;56.50;;;;;;5054873;28;20029;-69
2022/07/24 05:52:02;;;;;;;2.90;0.70;;;23.90;56.60;;;;;;5054814;28;20021;-69
2022/07/24 05:54:27;;;;;;;0.95;0.77;;;23.80;56.60;;;;;;5055067;28;20067;-69
2022/07/24 05:56:53;;;;;;;1.25;1.10;;;23.90;56.60;;;;;;5054881;28;20033;-69
2022/07/24 05:59:18;;;;;;;1.10;0.70;;;23.80;56.50;;;;;;5054635;28;20029;-69
2022/07/24 06:01:44;;;;;;;0.60;0.60;;;23.80;56.50;;;;;;5054481;28;20391;-69
2022/07/24 06:04:10;;;;;;;1.60;0.40;;;23.80;56.60;;;;;;5054732;28;20056;-69
2022/07/24 06:06:35;;;;;;;1.10;0.70;;;23.80;56.60;;;;;;5054489;28;20112;-69
2022/07/24 06:09:01;;;;;;;0.50;0.50;;;23.80;56.50;;;;;;5054620;28;20021;-69
2022/07/24 06:11:27;;;;;;;2.20;0.70;;;23.80;56.50;;;;;;5054304;28;20033;-69
2022/07/24 06:13:52;;;;;;;0.75;0.55;;;23.80;56.50;;;;;;5054479;28;20033;-69
2022/07/24 06:16:18;;;;;;;0.50;0.50;;;23.80;56.50;;;;;;5053103;28;20391;-70
2022/07/24 06:18:44;;;;;;;0.50;0.40;;;23.80;56.50;;;;;;5054266;28;20073;-69
2022/07/24 06:21:09;;;;;;;0.93;0.60;;;23.70;56.40;;;;;;5054218;28;20055;-69
2022/07/24 06:23:35;;;;;;;1.38;0.57;;;23.80;56.60;;;;;;5054255;28;20101;-69
2022/07/24 06:26:00;;;;;;;0.60;0.60;;;23.70;56.60;;;;;;5054336;28;20099;-69
2022/07/24 06:28:26;;;;;;;0.50;0.50;;;23.70;56.40;;;;;;5054140;28;20028;-69
2022/07/24 06:30:52;;;;;;;0.63;0.60;;;23.70;56.50;;;;;;5053953;28;20029;-69
2022/07/24 06:33:17;;;;;;;1.17;0.60;;;23.70;56.40;;;;;;5054031;28;20028;-69
2022/07/24 06:35:43;;;;;;;1.13;0.50;;;23.70;56.50;;;;;;5054485;28;20021;-69
2022/07/24 06:38:11;;;;;;;0.70;0.40;;;23.70;56.60;;;;;;5053920;28;20033;-69
2022/07/24 06:40:37;;;;;;;1.63;0.60;;;23.70;56.60;;;;;;5052649;28;20501;-69
2022/07/24 06:43:03;;;;;;;0.55;0.50;;;23.60;56.50;;;;;;5052986;28;20029;-69
2022/07/24 06:45:32;;;;;;;1.27;0.50;;;23.70;56.60;;;;;;5052528;28;20048;-69
2022/07/24 06:48:01;;;;;;;0.50;0.50;;;23.60;56.60;;;;;;5053728;28;20078;-70
2022/07/24 06:50:26;;;;;;;1.02;0.60;;;23.60;56.60;;;;;;5052636;28;20063;-69
2022/07/24 06:52:52;;;;;;;1.27;0.50;;;23.60;56.70;;;;;;5052574;28;20044;-69
2022/07/24 06:55:18;;;;;;;0.40;0.40;;;23.60;56.70;;;;;;5052495;28;20035;-70
2022/07/24 06:57:43;;;;;;;0.70;0.60;;;23.60;56.70;;;;;;5052297;28;20023;-69
2022/07/24 07:00:09;;;;;;;0.85;0.50;;;23.60;56.80;;;;;;5053332;28;20029;-69
2022/07/24 07:02:35;;;;;;;0.60;0.52;;;23.60;56.80;;;;;;5053463;28;20078;-69
2022/07/24 07:05:02;;;;;;;0.85;0.68;;;23.60;56.80;;;;;;5053615;28;20016;-69
2022/07/24 07:07:28;;;;;;;0.70;0.55;;;23.50;56.80;;;;;;5053538;28;20561;-69
2022/07/24 07:09:53;;;;;;;0.50;0.50;;;23.50;56.80;;;;;;5053446;28;20021;-69
2022/07/24 07:12:19;;;;;;;0.50;0.50;;;23.50;56.80;;;;;;5053290;28;20060;-69
2022/07/24 07:14:45;;;;;;;0.68;0.40;;;23.50;56.80;;;;;;5053134;28;20032;-69
2022/07/24 07:17:10;;;;;;;0.52;0.50;;;23.50;56.80;;;;;;5053218;28;20027;-69
2022/07/24 07:19:36;;;;;;;0.40;0.40;;;23.50;56.90;;;;;;5053122;28;20021;-69
2022/07/24 07:22:01;;;;;;;0.47;0.47;;;23.50;56.90;;;;;;5053256;28;20105;-69
2022/07/24 07:24:27;;;;;;;0.60;0.60;;;23.50;56.90;;;;;;5053099;28;20064;-70
2022/07/24 07:26:53;;;;;;;0.47;0.47;;;23.50;57.00;;;;;;5051984;28;20021;-69
2022/07/24 07:29:18;;;;;;;0.47;0.40;;;23.50;56.90;;;;;;5052761;28;20086;-70
2022/07/24 07:31:44;;;;;;;0.50;0.45;;;23.50;56.90;;;;;;5052928;28;20104;-69
2022/07/24 07:34:09;;;;;;;0.40;0.40;;;23.50;56.90;;;;;;5052934;28;20033;-69
2022/07/24 07:36:35;;;;;;;0.50;0.40;;;23.50;56.90;;;;;;5052745;28;20063;-69
2022/07/24 07:39:01;;;;;;;1.38;0.45;;;23.50;56.90;;;;;;5051746;28;20025;-70
2022/07/24 07:41:27;;;;;;;0.90;0.50;;;23.50;56.90;;;;;;5051590;28;20471;-69
2022/07/24 07:43:53;;;;;;;1.17;0.43;;;23.50;57.00;;;;;;5051358;28;20017;-69
2022/07/24 07:46:18;;;;;;;2.45;0.65;;;23.40;56.90;;;;;;5051931;28;20194;-69
2022/07/24 07:48:44;;;;;;;0.80;0.43;;;23.50;56.80;;;;;;5052603;28;20025;-69
2022/07/24 07:51:10;;;;;;;0.63;0.43;;;23.50;56.80;;;;;;5051082;28;20064;-69
2022/07/24 07:53:36;;;;;;;0.40;0.40;;;23.50;56.80;;;;;;5052692;28;20029;-69
2022/07/24 07:56:02;;;;;;;1.02;0.40;;;23.40;56.70;;;;;;5052542;28;20170;-69
2022/07/24 07:58:27;;;;;;;0.40;0.40;;;23.40;56.70;;;;;;5052430;28;20029;-69
2022/07/24 08:00:53;;;;;;;0.30;0.30;;;23.40;56.70;;;;;;5051244;28;20032;-69
2022/07/24 08:03:19;;;;;;;0.93;0.57;;;23.40;56.60;;;;;;5052523;28;20096;-69
2022/07/24 08:05:45;;;;;;;0.40;0.40;;;23.40;56.60;;;;;;5052552;28;20503;-69
2022/07/24 08:08:10;;;;;;;0.40;0.40;;;23.40;56.60;;;;;;5051081;28;20032;-69
2022/07/24 08:10:36;;;;;;;1.50;0.60;;;23.40;56.60;;;;;;5052388;28;20099;-69
2022/07/24 08:13:02;;;;;;;0.57;0.50;;;23.40;56.60;;;;;;5050808;28;20131;-69
2022/07/24 08:15:27;;;;;;;0.57;0.50;;;23.40;56.60;;;;;;5051225;28;20500;-69
2022/07/24 08:17:54;;;;;;;0.73;0.50;;;23.40;56.60;;;;;;5052271;28;20040;-69
2022/07/24 08:20:19;;;;;;;0.30;0.30;;;23.40;56.60;;;;;;5034886;28;20028;-69
2022/07/24 08:22:46;;;;;;;0.40;0.40;;;23.40;56.50;;;;;;5052064;28;20104;-69
2022/07/24 08:25:11;;;;;;;0.40;0.40;;;23.40;56.50;;;;;;5051033;28;20101;-69
2022/07/24 08:27:37;;;;;;;0.50;0.40;;;23.40;56.50;;;;;;5050791;28;20485;-69
2022/07/24 08:30:04;;;;;;;0.38;0.38;;;23.40;56.50;;;;;;5051080;28;20021;-69
2022/07/24 08:32:30;;;;;;;0.32;0.32;;;23.40;56.40;;;;;;5050814;28;20040;-69
2022/07/24 08:34:55;;;;;;;0.40;0.40;;;23.40;56.50;;;;;;5051639;28;20029;-69
2022/07/24 08:37:21;;;;;;;0.40;0.40;;;23.40;56.70;;;;;;5050740;28;20071;-69
2022/07/24 08:39:47;;;;;;;0.40;0.40;;;23.40;56.70;;;;;;5048877;28;20017;-69
2022/07/24 08:42:12;;;;;;;1.55;0.60;;;23.40;56.70;;;;;;5050682;28;20029;-69
2022/07/24 08:44:38;;;;;;;0.70;0.50;;;23.40;56.70;;;;;;5049646;28;20017;-70
2022/07/24 08:47:04;;;;;;;0.75;0.30;;;23.40;56.80;;;;;;5060618;28;20017;-70
2022/07/24 08:49:31;;;;;;;0.35;0.35;;;23.40;56.70;;;;;;5052756;28;20585;-69
2022/07/24 08:51:56;;;;;;;0.55;0.52;;;23.40;56.70;;;;;;5052811;28;20028;-70
2022/07/24 08:54:22;;;;;;;0.40;0.40;;;23.40;56.70;;;;;;5052676;28;20024;-70
2022/07/24 08:56:48;;;;;;;0.40;0.40;;;23.40;56.90;;;;;;5052070;28;20082;-69
2022/07/24 08:59:17;;;;;;;0.40;0.40;;;23.40;56.90;;;;;;5069062;28;20025;-69
2022/07/24 09:01:43;;;;;;;2.38;0.50;;;23.40;56.90;;;;;;5070394;28;20482;-70
2022/07/24 09:04:35;;;;;;;1.00;0.40;;;23.40;56.90;;;;;;5073486;28;20055;-69
2022/07/24 09:07:01;;;;;;;0.40;0.40;;;23.40;56.90;;;;;;5074026;28;20048;-69
2022/07/24 09:09:27;;;;;;;0.52;0.50;;;23.40;57.00;;;;;;5072835;28;20478;-70
2022/07/24 09:12:15;;;;;;;0.52;0.50;;;23.40;57.00;;;;;;5073576;28;20059;-69
2022/07/24 09:14:45;;;;;;;1.15;0.40;;;23.50;57.30;;;;;;5073172;28;20059;-70
2022/07/24 09:17:16;;;;;;;0.80;0.38;;;23.40;57.00;;;;;;5073022;28;20039;-69
2022/07/24 09:19:58;;;;;;;0.40;0.40;;;23.40;57.00;;;;;;5072950;28;20016;-69
2022/07/24 09:22:33;;;;;;;1.15;0.40;;;23.40;56.90;;;;;;5074250;28;20036;-70
2022/07/24 09:25:12;;;;;;;0.75;0.30;;;23.40;56.90;;;;;;5073600;28;20019;-69
2022/07/24 09:27:41;;;;;;;0.35;0.30;;;23.50;57.00;;;;;;5072423;28;20020;-69
2022/07/24 09:30:08;;;;;;;0.40;0.40;;;23.50;56.90;;;;;;5073758;28;20035;-70
2022/07/24 09:32:33;;;;;;;0.40;0.40;;;23.40;56.90;;;;;;5070027;28;20028;-69
2022/07/24 09:34:59;;;;;;;0.50;0.47;;;23.50;57.00;;;;;;5054077;28;20021;-69
2022/07/24 09:37:26;;;;;;;0.95;0.50;;;23.50;56.90;;;;;;5053929;28;20033;-70
2022/07/24 09:39:52;;;;;;;0.93;0.40;;;23.50;56.90;;;;;;5054016;28;20031;-70
2022/07/24 09:42:18;;;;;;;0.30;0.30;;;23.50;56.90;;;;;;5054267;28;20028;-69
2022/07/24 09:44:44;;;;;;;0.43;0.40;;;23.50;56.90;;;;;;5054352;28;20017;-69
2022/07/24 09:47:11;;;;;;;0.50;0.50;;;23.50;57.00;;;;;;5055454;28;20100;-70
2022/07/24 09:49:38;;;;;;;0.90;0.50;;;23.50;57.00;;;;;;5054070;28;20028;-70
2022/07/24 09:52:14;;;;;;;0.30;0.30;;;23.50;57.00;;;;;;5054062;28;20052;-69
2022/07/24 09:54:44;;;;;;;0.47;0.47;;;23.50;57.00;;;;;;5054051;28;20052;-69
2022/07/24 09:57:17;;;;;;;0.40;0.40;;;23.50;56.90;;;;;;5054325;28;20029;-69
2022/07/24 09:59:50;;;;;;;0.63;0.50;;;23.50;56.90;;;;;;5055323;28;20021;-69
2022/07/24 10:02:17;;;;;;;1.63;0.40;;;23.50;57.00;;;;;;5038278;28;20028;-69
2022/07/24 10:04:43;;;;;;;0.80;0.38;;;23.50;56.90;;;;;;5053877;28;20053;-70
2022/07/24 10:07:13;;;;;;;0.65;0.40;;;23.50;57.00;;;;;;5054078;28;20056;-69
2022/07/24 10:09:43;;;;;;;0.45;0.30;;;23.50;57.00;;;;;;5053852;28;20025;-70
2022/07/24 10:12:13;;;;;;;0.47;0.47;;;23.50;57.10;;;;;;5053707;28;20045;-70
2022/07/24 10:14:39;;;;;;;1.75;0.40;;;23.50;57.00;;;;;;5053055;28;20063;-69
2022/07/24 10:17:06;;;;;;;0.43;0.43;;;23.50;57.20;;;;;;5055026;28;20021;-69
2022/07/24 10:19:39;;;;;;;0.40;0.40;;;23.50;57.30;;;;;;5055044;28;20021;-69
2022/07/24 10:22:11;;;;;;;0.50;0.50;;;23.50;57.30;;;;;;5037265;28;20036;-69
2022/07/24 10:24:57;;;;;;;0.35;0.35;;;23.50;57.30;;;;;;5053493;28;20392;-69
2022/07/24 10:27:31;;;;;;;0.32;0.32;;;23.50;57.30;;;;;;5054667;28;20056;-69
2022/07/24 10:30:08;;;;;;;0.90;0.52;;;23.50;57.40;;;;;;5054279;28;20021;-70
2022/07/24 10:32:34;;;;;;;0.40;0.40;;;23.50;57.30;;;;;;5053001;28;20164;-70
2022/07/24 10:35:20;;;;;;;1.45;0.30;;;23.50;57.40;;;;;;5052920;28;20036;-70
2022/07/24 10:37:51;;;;;;;0.47;0.40;;;23.50;57.40;;;;;;5052694;28;20406;-69
2022/07/24 10:40:46;;;;;;;0.30;0.30;;;23.50;57.50;;;;;;5053422;28;20064;-70
2022/07/24 10:43:13;;;;;;;0.52;0.50;;;23.50;57.50;;;;;;5053412;28;20021;-69
2022/07/24 10:45:41;;;;;;;0.40;0.40;;;23.50;57.50;;;;;;5053261;28;20455;-69
2022/07/24 10:48:28;;;;;;;0.32;0.32;;;23.50;57.70;;;;;;5052967;28;20040;-70
2022/07/24 10:51:08;;;;;;;0.77;0.45;;;23.50;57.60;;;;;;5054076;28;20079;-69
2022/07/24 10:53:37;;;;;;;4.00;0.47;;;23.50;57.70;;;;;;5054256;28;20425;-70
2022/07/24 10:56:24;;;;;;;1.65;0.30;;;23.50;57.60;;;;;;5054330;28;20021;-70
2022/07/24 10:59:07;;;;;;;0.28;0.28;;;23.50;57.70;;;;;;5054175;28;20021;-69
2022/07/24 11:01:47;;;;;;;;;;;23.60;57.80;;;;;;5054462;28;20025;-69
2022/07/24 11:04:18;;;;;;;0.63;0.43;;;23.50;57.80;;;;;;5053154;28;20004;-69
2022/07/24 11:07:14;;;;;;;1.88;0.47;;;23.60;57.90;;;;;;5053963;28;20025;-70
2022/07/24 11:10:07;;;;;;;1.65;0.52;;;23.50;57.90;;;;;;5049464;28;20037;-69
2022/07/24 11:12:33;;;;;;;0.50;0.35;;;23.60;58.00;;;;;;5052625;28;20044;-69
2022/07/24 11:17:49;;;;;;;2.20;0.40;;;23.60;58.00;;;;;;5053927;28;20063;-69
2022/07/24 11:20:16;;;;;;;1.02;0.40;;;23.60;58.00;;;;;;5052848;28;20028;-70
2022/07/24 11:22:53;;;;;;;0.60;0.40;;;23.60;58.00;;;;;;5052631;28;20049;-70
2022/07/24 11:25:20;;;;;;;0.65;0.40;;;23.60;58.10;;;;;;5051705;28;20075;-70
2022/07/24 11:27:56;;;;;;;1.00;0.60;;;23.60;58.00;;;;;;5053658;28;20023;-70
2022/07/24 11:30:22;;;;;;;4.55;0.60;;;23.60;58.00;;;;;;5052522;28;20067;-70
2022/07/24 11:32:47;;;;;;;0.35;0.35;;;23.60;58.00;;;;;;5052455;28;20605;-69
2022/07/24 11:35:13;;;;;;;1.42;0.50;;;23.60;58.00;;;;;;5052314;28;20027;-69
2022/07/24 11:37:39;;;;;;;1.25;0.60;;;23.60;58.00;;;;;;5052243;28;20099;-69
2022/07/24 11:40:07;;;;;;;0.85;0.50;;;23.60;58.10;;;;;;5035563;28;20017;-69
2022/07/24 11:42:33;;;;;;;5.90;0.50;;;23.70;58.10;;;;;;5052185;28;20029;-69
2022/07/24 11:44:58;;;;;;;0.40;0.40;;;23.60;58.00;;;;;;5052181;28;20087;-70
2022/07/24 11:47:26;;;;;;;0.60;0.40;;;23.70;58.10;;;;;;5053355;28;20024;-70
2022/07/24 11:50:00;;;;;;;1.23;0.40;;;23.70;58.00;;;;;;5051865;28;20025;-69
2022/07/24 11:52:39;;;;;;;1.75;0.40;;;23.70;58.10;;;;;;5052268;28;20048;-69
2022/07/24 11:55:14;;;;;;;1.65;0.60;;;23.70;58.00;;;;;;5053296;28;20106;-69
2022/07/24 11:57:41;;;;;;;1.80;0.50;;;23.70;57.90;;;;;;5053485;28;20552;-69
2022/07/24 12:00:10;;;;;;;0.50;0.50;;;23.70;57.70;;;;;;5053122;28;20031;-70
2022/07/24 12:02:36;;;;;;;0.40;0.40;;;23.70;57.40;;;;;;5053042;28;20017;-69
2022/07/24 12:05:02;;;;;;;0.75;0.60;;;23.70;57.10;;;;;;5052818;28;20067;-69
2022/07/24 12:07:29;;;;;;;1.83;0.70;;;23.70;56.90;;;;;;5053127;28;20123;-70
2022/07/24 12:09:56;;;;;;;0.55;0.43;;;23.70;56.70;;;;;;5051827;28;20508;-69
2022/07/24 12:12:25;;;;;;;1.33;0.88;;;23.70;56.70;;;;;;5051652;28;20056;-70
2022/07/24 12:14:51;;;;;;;0.50;0.50;;;23.70;56.60;;;;;;5052817;28;20560;-69
2022/07/24 12:17:17;;;;;;;1.50;0.60;;;23.70;56.50;;;;;;5051618;28;20044;-70
2022/07/24 12:19:50;;;;;;;2.30;0.70;;;23.70;56.50;;;;;;5052961;28;20491;-69
2022/07/24 12:22:16;;;;;;;0.60;0.60;;;23.70;56.30;;;;;;5052922;28;20049;-70
2022/07/24 12:24:41;;;;;;;0.57;0.57;;;23.60;56.10;;;;;;5051424;28;20072;-69
2022/07/24 12:27:07;;;;;;;0.95;0.60;;;23.70;56.10;;;;;;5063700;28;20115;-69
2022/07/24 12:29:32;;;;;;;0.60;0.60;;;23.70;56.00;;;;;;5050609;28;20027;-69
2022/07/24 12:32:17;;;;;;;0.60;0.60;;;23.70;55.80;;;;;;5049225;28;20032;-70
2022/07/24 12:34:47;;;;;;;0.65;0.65;;;23.70;55.90;;;;;;5049188;28;20100;-70
2022/07/24 12:37:16;;;;;;;0.57;0.57;;;23.70;55.70;;;;;;5064486;28;20052;-69
2022/07/24 12:39:46;;;;;;;0.77;0.77;;;23.70;55.80;;;;;;5053326;28;20028;-69
2022/07/24 12:42:12;;;;;;;3.33;0.75;;;23.70;55.80;;;;;;5055131;28;20025;-80
2022/07/24 12:44:42;;;;;;;0.65;0.50;;;23.70;55.80;;;;;;5054605;28;20035;-81
2022/07/24 12:47:08;;;;;;;1.17;0.80;;;23.90;55.70;;;;;;5054611;28;20462;-79
2022/07/24 12:49:45;;;;;;;0.75;0.60;;;23.90;55.30;;;;;;5052933;28;20415;-78
2022/07/24 12:52:23;;;;;;;1.25;0.70;;;24.00;55.30;;;;;;5038017;28;20466;-81